sensor_id;sensor_type;location;lat;lon;timestamp;P1;durP1;ratioP1;P2;durP2;ratioP2
77495;SDS011;66600;48.378;9.948;2024-03-22T00:00:29;56.30;;;30.88;;
77495;SDS011;66600;48.378;9.948;2024-03-22T00:00:59;51.83;;;29.63;;
77495;SDS011;66600;48.378;9.948;2024-03-22T00:01:30;53.85;;;30.40;;
77495;SDS011;66600;48.378;9.948;2024-03-22T00:02:00;53.35;;;30.35;;
77495;SDS011;66600;48.378;9.948;2024-03-22T00:02:30;53.35;;;30.58;;
77495;SDS011;66600;48.378;9.948;2024-03-22T00:03:01;54.85;;;31.23;;
77495;SDS011;66600;48.378;9.948;2024-03-22T00:03:31;57.30;;;31.65;;
77495;SDS011;66600;48.378;9.948;2024-03-22T00:04:01;54.60;;;30.95;;
77495;SDS011;66600;48.378;9.948;2024-03-22T00:04:32;54.97;;;31.73;;
77495;SDS011;66600;48.378;9.948;2024-03-22T00:05:02;55.95;;;30.58;;
77495;SDS011;66600;48.378;9.948;2024-03-22T00:05:33;55.60;;;30.23;;
77495;SDS011;66600;48.378;9.948;2024-03-22T00:06:04;54.00;;;31.33;;
77495;SDS011;66600;48.378;9.948;2024-03-22T00:06:34;54.47;;;31.02;;
77495;SDS011;66600;48.378;9.948;2024-03-22T00:07:05;55.83;;;30.58;;
77495;SDS011;66600;48.378;9.948;2024-03-22T00:07:35;52.10;;;30.73;;
77495;SDS011;66600;48.378;9.948;2024-03-22T00:08:06;55.05;;;31.67;;
77495;SDS011;66600;48.378;9.948;2024-03-22T00:08:37;55.67;;;31.00;;
77495;SDS011;66600;48.378;9.948;2024-03-22T00:09:08;51.22;;;29.98;;
77495;SDS011;66600;48.378;9.948;2024-03-22T00:09:38;57.30;;;30.45;;
77495;SDS011;66600;48.378;9.948;2024-03-22T00:10:09;52.40;;;29.90;;
77495;SDS011;66600;48.378;9.948;2024-03-22T00:10:39;49.55;;;30.08;;
77495;SDS011;66600;48.378;9.948;2024-03-22T00:11:10;51.03;;;29.92;;
77495;SDS011;66600;48.378;9.948;2024-03-22T00:11:40;50.20;;;28.42;;
77495;SDS011;66600;48.378;9.948;2024-03-22T00:12:11;45.97;;;28.33;;
77495;SDS011;66600;48.378;9.948;2024-03-22T00:12:42;47.10;;;28.20;;
77495;SDS011;66600;48.378;9.948;2024-03-22T00:13:12;49.03;;;29.35;;
77495;SDS011;66600;48.378;9.948;2024-03-22T00:13:43;55.63;;;29.80;;
77495;SDS011;66600;48.378;9.948;2024-03-22T00:14:13;53.17;;;29.63;;
77495;SDS011;66600;48.378;9.948;2024-03-22T00:14:43;53.45;;;30.77;;
77495;SDS011;66600;48.378;9.948;2024-03-22T00:15:13;52.78;;;31.80;;
77495;SDS011;66600;48.378;9.948;2024-03-22T00:15:44;57.00;;;32.13;;
77495;SDS011;66600;48.378;9.948;2024-03-22T00:16:15;58.08;;;33.25;;
77495;SDS011;66600;48.378;9.948;2024-03-22T00:16:45;53.80;;;32.30;;
77495;SDS011;66600;48.378;9.948;2024-03-22T00:17:16;58.28;;;33.30;;
77495;SDS011;66600;48.378;9.948;2024-03-22T00:17:46;60.13;;;33.30;;
77495;SDS011;66600;48.378;9.948;2024-03-22T00:18:17;63.63;;;35.03;;
77495;SDS011;66600;48.378;9.948;2024-03-22T00:18:47;61.88;;;32.67;;
77495;SDS011;66600;48.378;9.948;2024-03-22T00:19:17;61.90;;;33.28;;
77495;SDS011;66600;48.378;9.948;2024-03-22T00:19:48;55.40;;;31.88;;
77495;SDS011;66600;48.378;9.948;2024-03-22T00:20:18;64.72;;;33.25;;
77495;SDS011;66600;48.378;9.948;2024-03-22T00:20:48;62.83;;;34.25;;
77495;SDS011;66600;48.378;9.948;2024-03-22T00:21:19;62.83;;;33.67;;
77495;SDS011;66600;48.378;9.948;2024-03-22T00:21:51;63.47;;;34.97;;
77495;SDS011;66600;48.378;9.948;2024-03-22T00:22:21;63.20;;;34.15;;
77495;SDS011;66600;48.378;9.948;2024-03-22T00:22:52;59.65;;;33.03;;
77495;SDS011;66600;48.378;9.948;2024-03-22T00:23:22;59.00;;;32.72;;
77495;SDS011;66600;48.378;9.948;2024-03-22T00:23:52;62.20;;;33.95;;
77495;SDS011;66600;48.378;9.948;2024-03-22T00:24:23;59.20;;;33.40;;
77495;SDS011;66600;48.378;9.948;2024-03-22T00:24:53;61.22;;;32.50;;
77495;SDS011;66600;48.378;9.948;2024-03-22T00:25:24;59.67;;;33.42;;
77495;SDS011;66600;48.378;9.948;2024-03-22T00:25:54;56.53;;;32.08;;
77495;SDS011;66600;48.378;9.948;2024-03-22T00:26:24;59.50;;;33.08;;
77495;SDS011;66600;48.378;9.948;2024-03-22T00:26:55;57.50;;;32.53;;
77495;SDS011;66600;48.378;9.948;2024-03-22T00:27:25;61.10;;;33.80;;
77495;SDS011;66600;48.378;9.948;2024-03-22T00:27:55;62.28;;;33.78;;
77495;SDS011;66600;48.378;9.948;2024-03-22T00:28:26;59.03;;;32.95;;
77495;SDS011;66600;48.378;9.948;2024-03-22T00:28:56;62.05;;;34.60;;
77495;SDS011;66600;48.378;9.948;2024-03-22T00:29:28;60.53;;;33.58;;
77495;SDS011;66600;48.378;9.948;2024-03-22T00:29:58;58.35;;;33.10;;
77495;SDS011;66600;48.378;9.948;2024-03-22T00:30:29;61.10;;;34.08;;
77495;SDS011;66600;48.378;9.948;2024-03-22T00:30:59;58.47;;;32.17;;
77495;SDS011;66600;48.378;9.948;2024-03-22T00:31:29;58.70;;;33.80;;
77495;SDS011;66600;48.378;9.948;2024-03-22T00:32:00;61.03;;;33.72;;
77495;SDS011;66600;48.378;9.948;2024-03-22T00:32:30;62.83;;;33.85;;
77495;SDS011;66600;48.378;9.948;2024-03-22T00:33:00;59.47;;;33.15;;
77495;SDS011;66600;48.378;9.948;2024-03-22T00:33:31;56.75;;;32.50;;
77495;SDS011;66600;48.378;9.948;2024-03-22T00:34:01;64.72;;;34.67;;
77495;SDS011;66600;48.378;9.948;2024-03-22T00:34:32;60.30;;;33.38;;
77495;SDS011;66600;48.378;9.948;2024-03-22T00:35:02;55.95;;;31.83;;
77495;SDS011;66600;48.378;9.948;2024-03-22T00:35:33;60.67;;;32.97;;
77495;SDS011;66600;48.378;9.948;2024-03-22T00:36:03;58.60;;;32.67;;
77495;SDS011;66600;48.378;9.948;2024-03-22T00:36:33;57.60;;;32.72;;
77495;SDS011;66600;48.378;9.948;2024-03-22T00:37:04;59.42;;;32.60;;
77495;SDS011;66600;48.378;9.948;2024-03-22T00:37:34;55.67;;;32.38;;
77495;SDS011;66600;48.378;9.948;2024-03-22T00:38:05;58.45;;;32.35;;
77495;SDS011;66600;48.378;9.948;2024-03-22T00:38:35;60.10;;;33.90;;
77495;SDS011;66600;48.378;9.948;2024-03-22T00:39:05;61.42;;;32.55;;
77495;SDS011;66600;48.378;9.948;2024-03-22T00:39:36;59.88;;;32.38;;
77495;SDS011;66600;48.378;9.948;2024-03-22T00:40:06;57.20;;;30.60;;
77495;SDS011;66600;48.378;9.948;2024-03-22T00:40:37;60.85;;;33.13;;
77495;SDS011;66600;48.378;9.948;2024-03-22T00:41:07;56.83;;;32.00;;
77495;SDS011;66600;48.378;9.948;2024-03-22T00:41:38;60.78;;;32.63;;
77495;SDS011;66600;48.378;9.948;2024-03-22T00:42:08;60.90;;;33.47;;
77495;SDS011;66600;48.378;9.948;2024-03-22T00:42:38;58.83;;;32.17;;
77495;SDS011;66600;48.378;9.948;2024-03-22T00:43:09;58.03;;;32.13;;
77495;SDS011;66600;48.378;9.948;2024-03-22T00:43:39;57.55;;;31.20;;
77495;SDS011;66600;48.378;9.948;2024-03-22T00:44:09;59.53;;;31.77;;
77495;SDS011;66600;48.378;9.948;2024-03-22T00:44:40;57.58;;;32.03;;
77495;SDS011;66600;48.378;9.948;2024-03-22T00:45:11;57.83;;;32.00;;
77495;SDS011;66600;48.378;9.948;2024-03-22T00:45:41;58.22;;;33.08;;
77495;SDS011;66600;48.378;9.948;2024-03-22T00:46:11;56.65;;;32.33;;
77495;SDS011;66600;48.378;9.948;2024-03-22T00:46:42;57.72;;;32.25;;
77495;SDS011;66600;48.378;9.948;2024-03-22T00:47:12;55.53;;;31.58;;
77495;SDS011;66600;48.378;9.948;2024-03-22T00:47:43;58.55;;;32.88;;
77495;SDS011;66600;48.378;9.948;2024-03-22T00:48:13;62.97;;;34.30;;
77495;SDS011;66600;48.378;9.948;2024-03-22T00:48:43;60.47;;;34.00;;
77495;SDS011;66600;48.378;9.948;2024-03-22T00:49:14;56.35;;;32.90;;
77495;SDS011;66600;48.378;9.948;2024-03-22T00:49:44;66.03;;;33.10;;
77495;SDS011;66600;48.378;9.948;2024-03-22T00:50:14;61.60;;;33.08;;
77495;SDS011;66600;48.378;9.948;2024-03-22T00:50:45;66.43;;;34.88;;
77495;SDS011;66600;48.378;9.948;2024-03-22T00:51:15;60.65;;;32.90;;
77495;SDS011;66600;48.378;9.948;2024-03-22T00:51:46;61.50;;;33.42;;
77495;SDS011;66600;48.378;9.948;2024-03-22T00:52:17;60.30;;;33.30;;
77495;SDS011;66600;48.378;9.948;2024-03-22T00:52:47;60.90;;;33.65;;
77495;SDS011;66600;48.378;9.948;2024-03-22T00:53:20;62.97;;;33.38;;
77495;SDS011;66600;48.378;9.948;2024-03-22T00:53:50;62.58;;;33.70;;
77495;SDS011;66600;48.378;9.948;2024-03-22T00:54:20;63.25;;;33.80;;
77495;SDS011;66600;48.378;9.948;2024-03-22T00:54:51;66.70;;;35.25;;
77495;SDS011;66600;48.378;9.948;2024-03-22T00:55:21;62.38;;;33.90;;
77495;SDS011;66600;48.378;9.948;2024-03-22T00:55:53;58.40;;;32.90;;
77495;SDS011;66600;48.378;9.948;2024-03-22T00:56:26;58.80;;;32.70;;
77495;SDS011;66600;48.378;9.948;2024-03-22T00:56:56;59.45;;;33.00;;
77495;SDS011;66600;48.378;9.948;2024-03-22T00:57:26;60.28;;;32.20;;
77495;SDS011;66600;48.378;9.948;2024-03-22T00:57:57;55.25;;;30.90;;
77495;SDS011;66600;48.378;9.948;2024-03-22T00:58:28;61.50;;;32.50;;
77495;SDS011;66600;48.378;9.948;2024-03-22T00:58:58;60.63;;;31.63;;
77495;SDS011;66600;48.378;9.948;2024-03-22T00:59:29;61.30;;;32.10;;
77495;SDS011;66600;48.378;9.948;2024-03-22T00:59:59;59.45;;;32.65;;
77495;SDS011;66600;48.378;9.948;2024-03-22T01:00:29;58.90;;;32.15;;
77495;SDS011;66600;48.378;9.948;2024-03-22T01:01:00;63.28;;;34.45;;
77495;SDS011;66600;48.378;9.948;2024-03-22T01:01:30;61.88;;;32.85;;
77495;SDS011;66600;48.378;9.948;2024-03-22T01:02:00;59.53;;;31.83;;
77495;SDS011;66600;48.378;9.948;2024-03-22T01:02:31;60.10;;;32.42;;
77495;SDS011;66600;48.378;9.948;2024-03-22T01:03:01;60.72;;;31.98;;
77495;SDS011;66600;48.378;9.948;2024-03-22T01:03:31;58.85;;;31.90;;
77495;SDS011;66600;48.378;9.948;2024-03-22T01:04:02;55.67;;;30.67;;
77495;SDS011;66600;48.378;9.948;2024-03-22T01:04:32;56.20;;;31.10;;
77495;SDS011;66600;48.378;9.948;2024-03-22T01:05:03;56.63;;;31.52;;
77495;SDS011;66600;48.378;9.948;2024-03-22T01:05:34;56.42;;;30.73;;
77495;SDS011;66600;48.378;9.948;2024-03-22T01:06:04;61.92;;;31.52;;
77495;SDS011;66600;48.378;9.948;2024-03-22T01:06:35;58.47;;;32.00;;
77495;SDS011;66600;48.378;9.948;2024-03-22T01:07:05;62.50;;;32.20;;
77495;SDS011;66600;48.378;9.948;2024-03-22T01:07:36;58.00;;;31.65;;
77495;SDS011;66600;48.378;9.948;2024-03-22T01:08:07;60.95;;;32.10;;
77495;SDS011;66600;48.378;9.948;2024-03-22T01:08:37;58.95;;;31.90;;
77495;SDS011;66600;48.378;9.948;2024-03-22T01:09:07;56.58;;;30.90;;
77495;SDS011;66600;48.378;9.948;2024-03-22T01:09:38;61.60;;;32.35;;
77495;SDS011;66600;48.378;9.948;2024-03-22T01:10:08;56.92;;;31.40;;
77495;SDS011;66600;48.378;9.948;2024-03-22T01:10:39;57.35;;;32.45;;
77495;SDS011;66600;48.378;9.948;2024-03-22T01:11:10;55.95;;;31.15;;
77495;SDS011;66600;48.378;9.948;2024-03-22T01:11:41;56.40;;;32.15;;
77495;SDS011;66600;48.378;9.948;2024-03-22T01:12:11;51.42;;;30.33;;
77495;SDS011;66600;48.378;9.948;2024-03-22T01:12:42;56.50;;;31.20;;
77495;SDS011;66600;48.378;9.948;2024-03-22T01:13:12;51.30;;;30.10;;
77495;SDS011;66600;48.378;9.948;2024-03-22T01:13:42;51.50;;;29.13;;
77495;SDS011;66600;48.378;9.948;2024-03-22T01:14:13;52.50;;;29.08;;
77495;SDS011;66600;48.378;9.948;2024-03-22T01:14:43;48.33;;;28.55;;
77495;SDS011;66600;48.378;9.948;2024-03-22T01:15:13;49.65;;;29.02;;
77495;SDS011;66600;48.378;9.948;2024-03-22T01:15:44;49.75;;;28.65;;
77495;SDS011;66600;48.378;9.948;2024-03-22T01:16:16;51.42;;;28.55;;
77495;SDS011;66600;48.378;9.948;2024-03-22T01:16:46;49.58;;;29.15;;
77495;SDS011;66600;48.378;9.948;2024-03-22T01:17:17;49.25;;;27.52;;
77495;SDS011;66600;48.378;9.948;2024-03-22T01:17:47;49.25;;;28.27;;
77495;SDS011;66600;48.378;9.948;2024-03-22T01:18:17;54.08;;;29.40;;
77495;SDS011;66600;48.378;9.948;2024-03-22T01:18:48;50.00;;;29.92;;
77495;SDS011;66600;48.378;9.948;2024-03-22T01:19:18;50.70;;;29.45;;
77495;SDS011;66600;48.378;9.948;2024-03-22T01:19:49;55.05;;;29.67;;
77495;SDS011;66600;48.378;9.948;2024-03-22T01:20:19;54.80;;;29.48;;
77495;SDS011;66600;48.378;9.948;2024-03-22T01:20:50;54.25;;;29.33;;
77495;SDS011;66600;48.378;9.948;2024-03-22T01:21:20;56.15;;;30.25;;
77495;SDS011;66600;48.378;9.948;2024-03-22T01:21:55;51.25;;;29.73;;
77495;SDS011;66600;48.378;9.948;2024-03-22T01:22:25;51.65;;;28.35;;
77495;SDS011;66600;48.378;9.948;2024-03-22T01:22:56;54.38;;;29.15;;
77495;SDS011;66600;48.378;9.948;2024-03-22T01:23:26;48.65;;;28.75;;
77495;SDS011;66600;48.378;9.948;2024-03-22T01:23:56;50.15;;;29.75;;
77495;SDS011;66600;48.378;9.948;2024-03-22T01:24:27;50.42;;;29.02;;
77495;SDS011;66600;48.378;9.948;2024-03-22T01:24:58;53.50;;;29.65;;
77495;SDS011;66600;48.378;9.948;2024-03-22T01:25:28;57.75;;;31.80;;
77495;SDS011;66600;48.378;9.948;2024-03-22T01:25:58;56.85;;;30.35;;
77495;SDS011;66600;48.378;9.948;2024-03-22T01:26:29;50.05;;;29.40;;
77495;SDS011;66600;48.378;9.948;2024-03-22T01:26:59;53.92;;;28.58;;
77495;SDS011;66600;48.378;9.948;2024-03-22T01:27:29;52.35;;;29.02;;
77495;SDS011;66600;48.378;9.948;2024-03-22T01:28:00;50.35;;;27.63;;
77495;SDS011;66600;48.378;9.948;2024-03-22T01:28:30;49.67;;;27.65;;
77495;SDS011;66600;48.378;9.948;2024-03-22T01:29:01;47.20;;;27.17;;
77495;SDS011;66600;48.378;9.948;2024-03-22T01:29:31;47.90;;;27.15;;
77495;SDS011;66600;48.378;9.948;2024-03-22T01:30:01;49.88;;;28.20;;
77495;SDS011;66600;48.378;9.948;2024-03-22T01:30:32;51.28;;;29.00;;
77495;SDS011;66600;48.378;9.948;2024-03-22T01:31:04;46.95;;;26.70;;
77495;SDS011;66600;48.378;9.948;2024-03-22T01:31:34;46.97;;;26.77;;
77495;SDS011;66600;48.378;9.948;2024-03-22T01:32:05;46.45;;;25.98;;
77495;SDS011;66600;48.378;9.948;2024-03-22T01:32:36;48.33;;;27.17;;
77495;SDS011;66600;48.378;9.948;2024-03-22T01:33:07;48.78;;;28.25;;
77495;SDS011;66600;48.378;9.948;2024-03-22T01:33:37;46.58;;;26.80;;
77495;SDS011;66600;48.378;9.948;2024-03-22T01:34:07;45.55;;;26.85;;
77495;SDS011;66600;48.378;9.948;2024-03-22T01:34:38;50.90;;;28.10;;
77495;SDS011;66600;48.378;9.948;2024-03-22T01:35:08;50.90;;;28.90;;
77495;SDS011;66600;48.378;9.948;2024-03-22T01:35:39;53.63;;;28.38;;
77495;SDS011;66600;48.378;9.948;2024-03-22T01:36:09;49.83;;;28.63;;
77495;SDS011;66600;48.378;9.948;2024-03-22T01:36:39;47.25;;;27.58;;
77495;SDS011;66600;48.378;9.948;2024-03-22T01:37:10;50.90;;;28.02;;
77495;SDS011;66600;48.378;9.948;2024-03-22T01:37:40;46.72;;;27.77;;
77495;SDS011;66600;48.378;9.948;2024-03-22T01:38:11;47.90;;;26.58;;
77495;SDS011;66600;48.378;9.948;2024-03-22T01:38:41;44.15;;;25.95;;
77495;SDS011;66600;48.378;9.948;2024-03-22T01:39:11;46.50;;;25.98;;
77495;SDS011;66600;48.378;9.948;2024-03-22T01:39:44;46.92;;;27.75;;
77495;SDS011;66600;48.378;9.948;2024-03-22T01:40:14;47.90;;;27.85;;
77495;SDS011;66600;48.378;9.948;2024-03-22T01:40:45;46.30;;;27.98;;
77495;SDS011;66600;48.378;9.948;2024-03-22T01:41:15;54.50;;;31.15;;
77495;SDS011;66600;48.378;9.948;2024-03-22T01:41:46;52.95;;;29.27;;
77495;SDS011;66600;48.378;9.948;2024-03-22T01:42:16;54.80;;;30.02;;
77495;SDS011;66600;48.378;9.948;2024-03-22T01:42:47;50.53;;;29.48;;
77495;SDS011;66600;48.378;9.948;2024-03-22T01:43:17;48.85;;;27.95;;
77495;SDS011;66600;48.378;9.948;2024-03-22T01:43:47;44.00;;;26.45;;
77495;SDS011;66600;48.378;9.948;2024-03-22T01:44:18;49.42;;;28.15;;
77495;SDS011;66600;48.378;9.948;2024-03-22T01:44:48;44.88;;;26.95;;
77495;SDS011;66600;48.378;9.948;2024-03-22T01:45:19;45.90;;;26.95;;
77495;SDS011;66600;48.378;9.948;2024-03-22T01:45:50;45.47;;;27.38;;
77495;SDS011;66600;48.378;9.948;2024-03-22T01:46:20;48.05;;;27.15;;
77495;SDS011;66600;48.378;9.948;2024-03-22T01:46:51;46.13;;;26.92;;
77495;SDS011;66600;48.378;9.948;2024-03-22T01:47:21;49.40;;;26.58;;
77495;SDS011;66600;48.378;9.948;2024-03-22T01:47:52;50.55;;;27.48;;
77495;SDS011;66600;48.378;9.948;2024-03-22T01:48:26;49.75;;;27.52;;
77495;SDS011;66600;48.378;9.948;2024-03-22T01:48:57;51.03;;;29.65;;
77495;SDS011;66600;48.378;9.948;2024-03-22T01:49:28;48.20;;;28.20;;
77495;SDS011;66600;48.378;9.948;2024-03-22T01:49:58;52.75;;;29.23;;
77495;SDS011;66600;48.378;9.948;2024-03-22T01:50:30;48.78;;;28.75;;
77495;SDS011;66600;48.378;9.948;2024-03-22T01:51:01;47.75;;;27.63;;
77495;SDS011;66600;48.378;9.948;2024-03-22T01:51:32;56.83;;;30.38;;
77495;SDS011;66600;48.378;9.948;2024-03-22T01:52:02;57.85;;;32.92;;
77495;SDS011;66600;48.378;9.948;2024-03-22T01:52:33;55.28;;;30.90;;
77495;SDS011;66600;48.378;9.948;2024-03-22T01:53:04;54.35;;;28.95;;
77495;SDS011;66600;48.378;9.948;2024-03-22T01:53:34;53.35;;;29.08;;
77495;SDS011;66600;48.378;9.948;2024-03-22T01:54:08;56.55;;;30.17;;
77495;SDS011;66600;48.378;9.948;2024-03-22T01:54:39;54.20;;;29.27;;
77495;SDS011;66600;48.378;9.948;2024-03-22T01:55:10;58.80;;;30.67;;
77495;SDS011;66600;48.378;9.948;2024-03-22T01:55:40;55.72;;;29.92;;
77495;SDS011;66600;48.378;9.948;2024-03-22T01:56:10;59.28;;;30.85;;
77495;SDS011;66600;48.378;9.948;2024-03-22T01:56:41;51.83;;;29.50;;
77495;SDS011;66600;48.378;9.948;2024-03-22T01:57:11;60.03;;;32.08;;
77495;SDS011;66600;48.378;9.948;2024-03-22T01:57:42;62.47;;;32.00;;
77495;SDS011;66600;48.378;9.948;2024-03-22T01:58:13;64.65;;;33.65;;
77495;SDS011;66600;48.378;9.948;2024-03-22T01:58:43;64.10;;;33.88;;
77495;SDS011;66600;48.378;9.948;2024-03-22T01:59:14;69.30;;;35.15;;
77495;SDS011;66600;48.378;9.948;2024-03-22T01:59:45;67.35;;;35.10;;
77495;SDS011;66600;48.378;9.948;2024-03-22T02:00:18;72.57;;;35.95;;
77495;SDS011;66600;48.378;9.948;2024-03-22T02:00:49;66.25;;;33.83;;
77495;SDS011;66600;48.378;9.948;2024-03-22T02:01:19;65.55;;;33.72;;
77495;SDS011;66600;48.378;9.948;2024-03-22T02:01:50;66.32;;;34.05;;
77495;SDS011;66600;48.378;9.948;2024-03-22T02:02:20;64.38;;;33.63;;
77495;SDS011;66600;48.378;9.948;2024-03-22T02:02:50;63.80;;;33.30;;
77495;SDS011;66600;48.378;9.948;2024-03-22T02:03:21;63.55;;;32.72;;
77495;SDS011;66600;48.378;9.948;2024-03-22T02:03:51;61.55;;;33.45;;
77495;SDS011;66600;48.378;9.948;2024-03-22T02:04:22;59.38;;;32.83;;
77495;SDS011;66600;48.378;9.948;2024-03-22T02:04:52;64.63;;;33.28;;
77495;SDS011;66600;48.378;9.948;2024-03-22T02:05:23;61.70;;;33.65;;
77495;SDS011;66600;48.378;9.948;2024-03-22T02:05:54;61.63;;;32.30;;
77495;SDS011;66600;48.378;9.948;2024-03-22T02:06:25;60.30;;;32.45;;
77495;SDS011;66600;48.378;9.948;2024-03-22T02:06:56;58.22;;;31.52;;
77495;SDS011;66600;48.378;9.948;2024-03-22T02:07:28;57.83;;;32.22;;
77495;SDS011;66600;48.378;9.948;2024-03-22T02:08:00;57.40;;;32.00;;
77495;SDS011;66600;48.378;9.948;2024-03-22T02:08:30;60.20;;;31.88;;
77495;SDS011;66600;48.378;9.948;2024-03-22T02:09:00;57.75;;;32.75;;
77495;SDS011;66600;48.378;9.948;2024-03-22T02:09:31;64.40;;;33.83;;
77495;SDS011;66600;48.378;9.948;2024-03-22T02:10:01;61.30;;;33.15;;
77495;SDS011;66600;48.378;9.948;2024-03-22T02:10:32;62.67;;;32.17;;
77495;SDS011;66600;48.378;9.948;2024-03-22T02:11:02;56.35;;;31.88;;
77495;SDS011;66600;48.378;9.948;2024-03-22T02:11:33;57.60;;;31.63;;
77495;SDS011;66600;48.378;9.948;2024-03-22T02:12:04;59.10;;;31.70;;
77495;SDS011;66600;48.378;9.948;2024-03-22T02:12:34;62.92;;;33.38;;
77495;SDS011;66600;48.378;9.948;2024-03-22T02:13:05;56.80;;;31.50;;
77495;SDS011;66600;48.378;9.948;2024-03-22T02:13:35;56.20;;;32.03;;
77495;SDS011;66600;48.378;9.948;2024-03-22T02:14:05;57.53;;;30.17;;
77495;SDS011;66600;48.378;9.948;2024-03-22T02:14:36;55.40;;;30.33;;
77495;SDS011;66600;48.378;9.948;2024-03-22T02:15:07;54.70;;;30.27;;
77495;SDS011;66600;48.378;9.948;2024-03-22T02:15:38;56.70;;;31.45;;
77495;SDS011;66600;48.378;9.948;2024-03-22T02:16:08;56.35;;;30.98;;
77495;SDS011;66600;48.378;9.948;2024-03-22T02:16:42;59.95;;;31.38;;
77495;SDS011;66600;48.378;9.948;2024-03-22T02:17:12;58.17;;;32.25;;
77495;SDS011;66600;48.378;9.948;2024-03-22T02:17:42;55.40;;;31.80;;
77495;SDS011;66600;48.378;9.948;2024-03-22T02:18:13;66.47;;;33.72;;
77495;SDS011;66600;48.378;9.948;2024-03-22T02:18:43;67.05;;;35.33;;
77495;SDS011;66600;48.378;9.948;2024-03-22T02:19:16;64.18;;;33.25;;
77495;SDS011;66600;48.378;9.948;2024-03-22T02:19:47;60.47;;;32.72;;
77495;SDS011;66600;48.378;9.948;2024-03-22T02:20:17;61.53;;;32.83;;
77495;SDS011;66600;48.378;9.948;2024-03-22T02:20:47;63.60;;;32.67;;
77495;SDS011;66600;48.378;9.948;2024-03-22T02:21:18;59.72;;;32.30;;
77495;SDS011;66600;48.378;9.948;2024-03-22T02:21:48;56.72;;;32.05;;
77495;SDS011;66600;48.378;9.948;2024-03-22T02:22:18;60.80;;;33.20;;
77495;SDS011;66600;48.378;9.948;2024-03-22T02:22:49;55.65;;;31.30;;
77495;SDS011;66600;48.378;9.948;2024-03-22T02:23:23;59.45;;;31.55;;
77495;SDS011;66600;48.378;9.948;2024-03-22T02:24:03;52.88;;;29.20;;
77495;SDS011;66600;48.378;9.948;2024-03-22T02:24:33;56.05;;;30.00;;
77495;SDS011;66600;48.378;9.948;2024-03-22T02:25:04;52.78;;;28.77;;
77495;SDS011;66600;48.378;9.948;2024-03-22T02:25:34;52.20;;;30.92;;
77495;SDS011;66600;48.378;9.948;2024-03-22T02:26:05;53.45;;;29.98;;
77495;SDS011;66600;48.378;9.948;2024-03-22T02:26:36;53.13;;;30.48;;
77495;SDS011;66600;48.378;9.948;2024-03-22T02:27:07;55.45;;;29.85;;
77495;SDS011;66600;48.378;9.948;2024-03-22T02:27:38;55.08;;;29.60;;
77495;SDS011;66600;48.378;9.948;2024-03-22T02:28:08;48.90;;;28.42;;
77495;SDS011;66600;48.378;9.948;2024-03-22T02:28:39;53.67;;;28.83;;
77495;SDS011;66600;48.378;9.948;2024-03-22T02:29:09;53.55;;;29.48;;
77495;SDS011;66600;48.378;9.948;2024-03-22T02:29:40;49.13;;;27.35;;
77495;SDS011;66600;48.378;9.948;2024-03-22T02:30:10;53.58;;;29.00;;
77495;SDS011;66600;48.378;9.948;2024-03-22T02:30:40;50.20;;;28.25;;
77495;SDS011;66600;48.378;9.948;2024-03-22T02:31:11;48.55;;;27.67;;
77495;SDS011;66600;48.378;9.948;2024-03-22T02:31:41;51.10;;;28.05;;
77495;SDS011;66600;48.378;9.948;2024-03-22T02:32:11;47.85;;;27.63;;
77495;SDS011;66600;48.378;9.948;2024-03-22T02:32:42;51.38;;;27.95;;
77495;SDS011;66600;48.378;9.948;2024-03-22T02:33:12;48.30;;;26.98;;
77495;SDS011;66600;48.378;9.948;2024-03-22T02:33:42;45.40;;;27.08;;
77495;SDS011;66600;48.378;9.948;2024-03-22T02:34:13;48.85;;;27.90;;
77495;SDS011;66600;48.378;9.948;2024-03-22T02:34:43;50.00;;;28.30;;
77495;SDS011;66600;48.378;9.948;2024-03-22T02:35:14;46.72;;;27.50;;
77495;SDS011;66600;48.378;9.948;2024-03-22T02:35:47;54.63;;;29.73;;
77495;SDS011;66600;48.378;9.948;2024-03-22T02:36:17;54.08;;;28.90;;
77495;SDS011;66600;48.378;9.948;2024-03-22T02:36:48;54.75;;;30.13;;
77495;SDS011;66600;48.378;9.948;2024-03-22T02:37:18;52.17;;;28.58;;
77495;SDS011;66600;48.378;9.948;2024-03-22T02:37:49;52.55;;;29.40;;
77495;SDS011;66600;48.378;9.948;2024-03-22T02:38:20;52.38;;;29.65;;
77495;SDS011;66600;48.378;9.948;2024-03-22T02:38:50;52.53;;;28.95;;
77495;SDS011;66600;48.378;9.948;2024-03-22T02:39:20;52.90;;;29.67;;
77495;SDS011;66600;48.378;9.948;2024-03-22T02:39:51;53.40;;;29.42;;
77495;SDS011;66600;48.378;9.948;2024-03-22T02:40:21;54.35;;;29.10;;
77495;SDS011;66600;48.378;9.948;2024-03-22T02:40:52;54.85;;;29.80;;
77495;SDS011;66600;48.378;9.948;2024-03-22T02:41:23;54.08;;;29.63;;
77495;SDS011;66600;48.378;9.948;2024-03-22T02:41:53;58.67;;;30.55;;
77495;SDS011;66600;48.378;9.948;2024-03-22T02:42:23;58.38;;;30.77;;
77495;SDS011;66600;48.378;9.948;2024-03-22T02:42:54;57.92;;;31.00;;
77495;SDS011;66600;48.378;9.948;2024-03-22T02:43:24;55.42;;;30.73;;
77495;SDS011;66600;48.378;9.948;2024-03-22T02:43:54;55.60;;;30.27;;
77495;SDS011;66600;48.378;9.948;2024-03-22T02:44:25;53.05;;;29.10;;
77495;SDS011;66600;48.378;9.948;2024-03-22T02:44:55;52.58;;;30.27;;
77495;SDS011;66600;48.378;9.948;2024-03-22T02:45:25;56.08;;;30.27;;
77495;SDS011;66600;48.378;9.948;2024-03-22T02:45:56;52.55;;;29.13;;
77495;SDS011;66600;48.378;9.948;2024-03-22T02:46:26;51.03;;;28.35;;
77495;SDS011;66600;48.378;9.948;2024-03-22T02:46:56;50.78;;;28.75;;
77495;SDS011;66600;48.378;9.948;2024-03-22T02:47:27;52.67;;;29.52;;
77495;SDS011;66600;48.378;9.948;2024-03-22T02:47:57;50.50;;;28.02;;
77495;SDS011;66600;48.378;9.948;2024-03-22T02:48:28;52.60;;;30.23;;
77495;SDS011;66600;48.378;9.948;2024-03-22T02:48:58;50.88;;;28.92;;
77495;SDS011;66600;48.378;9.948;2024-03-22T02:49:29;49.38;;;28.55;;
77495;SDS011;66600;48.378;9.948;2024-03-22T02:49:59;52.20;;;28.70;;
77495;SDS011;66600;48.378;9.948;2024-03-22T02:50:36;52.65;;;28.70;;
77495;SDS011;66600;48.378;9.948;2024-03-22T02:51:07;52.25;;;29.45;;
77495;SDS011;66600;48.378;9.948;2024-03-22T02:51:37;56.17;;;30.52;;
77495;SDS011;66600;48.378;9.948;2024-03-22T02:52:07;56.92;;;30.83;;
77495;SDS011;66600;48.378;9.948;2024-03-22T02:52:38;53.83;;;30.27;;
77495;SDS011;66600;48.378;9.948;2024-03-22T02:53:08;52.17;;;28.08;;
77495;SDS011;66600;48.378;9.948;2024-03-22T02:53:39;48.78;;;28.30;;
77495;SDS011;66600;48.378;9.948;2024-03-22T02:54:09;52.53;;;28.75;;
77495;SDS011;66600;48.378;9.948;2024-03-22T02:54:39;48.78;;;28.10;;
77495;SDS011;66600;48.378;9.948;2024-03-22T02:55:11;55.65;;;29.70;;
77495;SDS011;66600;48.378;9.948;2024-03-22T02:55:41;53.10;;;29.85;;
77495;SDS011;66600;48.378;9.948;2024-03-22T02:56:11;53.05;;;29.63;;
77495;SDS011;66600;48.378;9.948;2024-03-22T02:56:42;54.08;;;30.02;;
77495;SDS011;66600;48.378;9.948;2024-03-22T02:57:12;52.65;;;28.42;;
77495;SDS011;66600;48.378;9.948;2024-03-22T02:57:42;50.78;;;29.23;;
77495;SDS011;66600;48.378;9.948;2024-03-22T02:58:13;52.45;;;28.98;;
77495;SDS011;66600;48.378;9.948;2024-03-22T02:58:43;56.40;;;30.30;;
77495;SDS011;66600;48.378;9.948;2024-03-22T02:59:14;50.95;;;29.30;;